createdAt,value
2022-12-08T00:02:53.003Z,-0.91
2022-12-08T00:08:13.629Z,-0.69
2022-12-08T00:13:15.498Z,0.79
2022-12-08T00:18:17.298Z,-0.16
2022-12-08T00:23:19.092Z,0.29
2022-12-08T00:28:20.938Z,0.71
2022-12-08T00:33:22.801Z,0.95
2022-12-08T00:38:24.479Z,0.06
2022-12-08T00:43:26.869Z,-0.35
2022-12-08T00:48:28.623Z,0.42
2022-12-08T00:53:31.823Z,1.00
2022-12-08T00:58:33.625Z,0.58
2022-12-08T01:03:35.462Z,0.79
2022-12-08T01:08:38.117Z,1.51
2022-12-08T01:13:40.088Z,0.92
2022-12-08T01:18:41.863Z,0.41
2022-12-08T01:23:44.028Z,0.88
2022-12-08T01:28:47.137Z,1.32
2022-12-08T01:33:48.994Z,0.98
2022-12-08T01:38:51.409Z,0.95
2022-12-08T01:44:04.390Z,0.97
2022-12-08T01:49:17.948Z,1.12
2022-12-08T01:54:23.523Z,-0.42
2022-12-08T01:59:26.208Z,0.40
2022-12-08T02:04:27.920Z,-0.32
2022-12-08T02:09:29.672Z,-1.22
2022-12-08T02:14:32.348Z,-2.53
2022-12-08T02:20:05.804Z,-1.90
2022-12-08T02:25:19.742Z,-1.14
2022-12-08T02:30:25.805Z,0.13
2022-12-08T02:35:36.503Z,0.76
2022-12-08T02:41:01.227Z,0.21
2022-12-08T02:46:07.586Z,0.32
2022-12-08T02:51:09.358Z,1.12
2022-12-08T02:56:41.647Z,1.36
2022-12-08T03:02:01.428Z,0.91
2022-12-08T03:07:33.835Z,0.29
2022-12-08T03:12:48.138Z,0.31
2022-12-08T03:17:56.566Z,1.02
2022-12-08T03:23:00.352Z,-0.06
2022-12-08T03:28:02.288Z,0.56
2022-12-08T03:33:17.673Z,0.50
2022-12-08T03:38:19.832Z,0.91
2022-12-08T03:43:21.694Z,0.58
2022-12-08T03:48:23.430Z,0.89
2022-12-08T03:53:26.057Z,0.65
2022-12-08T03:58:30.770Z,0.34
2022-12-08T04:03:34.809Z,0.22
2022-12-08T04:08:36.545Z,0.84
2022-12-08T04:13:39.863Z,0.52
2022-12-08T04:18:41.575Z,0.81
2022-12-08T04:23:43.726Z,0.89
2022-12-08T04:28:45.566Z,1.41
2022-12-08T04:33:47.388Z,0.50
2022-12-08T04:38:49.101Z,1.25
2022-12-08T04:43:50.841Z,0.76
2022-12-08T04:48:52.585Z,0.14
2022-12-08T04:53:54.451Z,0.54
2022-12-08T04:58:56.113Z,0.63
2022-12-08T05:05:13.652Z,-1.18
2022-12-08T05:10:15.350Z,-0.47
2022-12-08T05:15:17.046Z,-0.21
2022-12-08T05:20:18.700Z,0.20
2022-12-08T05:25:20.312Z,0.08
2022-12-08T05:30:21.906Z,-0.11
2022-12-08T05:35:23.512Z,-0.06
2022-12-08T05:40:25.102Z,-0.34
2022-12-08T05:45:26.833Z,-0.19
2022-12-08T05:50:28.619Z,0.18
2022-12-08T05:55:30.475Z,-0.57
2022-12-08T06:00:34.836Z,-1.38
2022-12-08T06:05:36.514Z,0.03
2022-12-08T06:10:39.694Z,-0.30
2022-12-08T06:15:41.632Z,-0.39
2022-12-08T06:20:43.289Z,0.46
2022-12-08T06:25:45.053Z,-0.55
2022-12-08T06:30:46.824Z,-0.01
2022-12-08T06:35:48.666Z,-0.00
2022-12-08T06:40:54.838Z,-0.16
2022-12-08T06:45:56.574Z,-0.06
2022-12-08T06:50:58.292Z,0.21
2022-12-08T06:56:00.229Z,-0.08
2022-12-08T07:01:06.885Z,0.08
2022-12-08T07:06:08.694Z,0.37
2022-12-08T07:11:14.218Z,0.05
2022-12-08T07:16:20.106Z,-0.25
2022-12-08T07:21:21.874Z,-0.25
2022-12-08T07:26:23.728Z,-0.88
2022-12-08T07:31:26.490Z,-1.77
2022-12-08T07:36:28.378Z,-1.49
2022-12-08T07:41:30.134Z,-1.70
2022-12-08T07:46:32.007Z,-0.98
2022-12-08T07:51:33.767Z,-1.81
2022-12-08T07:56:35.591Z,-1.07
2022-12-08T08:01:37.490Z,-1.01
2022-12-08T08:06:39.423Z,-1.19
2022-12-08T08:11:41.228Z,-2.27
2022-12-08T08:16:46.889Z,-0.44
2022-12-08T08:21:48.734Z,-0.52
2022-12-08T08:26:50.727Z,0.01
2022-12-08T08:31:52.496Z,0.24
2022-12-08T08:36:54.296Z,-0.12
2022-12-08T08:41:55.983Z,0.04
2022-12-08T08:46:57.748Z,-0.38
2022-12-08T08:51:59.539Z,0.55
2022-12-08T08:57:01.829Z,-0.14
2022-12-08T09:02:03.706Z,-0.11
2022-12-08T09:07:05.552Z,1.38
2022-12-08T09:12:07.642Z,0.44
2022-12-08T09:17:09.442Z,0.44
2022-12-08T09:22:11.103Z,-0.00
2022-12-08T09:27:12.798Z,0.60
2022-12-08T09:32:14.524Z,0.76
2022-12-08T09:37:16.312Z,0.78
2022-12-08T09:42:30.983Z,0.56
2022-12-08T09:47:39.765Z,0.94
2022-12-08T09:52:47.117Z,0.45
2022-12-08T09:58:00.141Z,0.92
2022-12-08T10:03:02.030Z,0.82
2022-12-08T10:08:21.260Z,1.59
2022-12-08T10:13:45.071Z,0.91
2022-12-08T10:18:46.746Z,0.77
2022-12-08T10:23:53.558Z,1.09
2022-12-08T10:29:01.341Z,0.96
2022-12-08T10:34:16.410Z,1.20
2022-12-08T10:39:37.405Z,1.22
2022-12-08T10:44:53.432Z,1.71
2022-12-08T10:50:18.967Z,0.26
2022-12-08T10:55:21.750Z,1.47
2022-12-08T11:06:21.676Z,0.14
2022-12-08T11:11:47.286Z,0.55
2022-12-08T11:16:51.521Z,0.13
2022-12-08T11:21:53.443Z,0.96
2022-12-08T11:27:02.359Z,0.56
2022-12-08T11:32:12.874Z,1.18
2022-12-08T11:37:35.963Z,0.19
2022-12-08T11:42:54.997Z,1.35
2022-12-08T11:48:19.564Z,1.74
2022-12-08T11:53:30.023Z,1.24
2022-12-08T11:58:39.348Z,1.86
2022-12-08T12:03:47.367Z,1.18
2022-12-08T12:09:11.361Z,0.46
2022-12-08T12:14:34.875Z,1.79
2022-12-08T12:19:39.551Z,1.11
2022-12-08T12:24:44.324Z,1.16
2022-12-08T12:30:05.085Z,1.36
2022-12-08T12:35:17.956Z,2.08
2022-12-08T12:40:24.330Z,1.73
2022-12-08T12:45:26.033Z,2.54
2022-12-08T12:50:33.731Z,1.61
2022-12-08T12:55:56.652Z,2.04
2022-12-08T13:01:10.421Z,2.47
2022-12-08T13:06:15.084Z,1.42
2022-12-08T13:11:17.047Z,2.52
2022-12-08T13:16:24.164Z,2.53
2022-12-08T13:21:36.890Z,2.28
2022-12-08T13:27:03.343Z,2.48
2022-12-08T13:33:09.642Z,1.92
2022-12-08T13:38:06.975Z,1.91
2022-12-08T13:43:45.198Z,2.21
2022-12-08T13:51:23.859Z,0.52
2022-12-08T13:55:12.245Z,1.69
2022-12-08T13:59:48.496Z,1.22
2022-12-08T14:10:20.405Z,1.10
2022-12-08T14:15:23.222Z,1.48
2022-12-08T14:20:27.865Z,2.22
2022-12-08T14:25:30.169Z,2.30
2022-12-08T14:30:33.178Z,1.92
2022-12-08T14:35:37.095Z,1.84
2022-12-08T14:40:40.007Z,2.22
2022-12-08T14:45:41.633Z,1.01
2022-12-08T14:51:03.325Z,1.77
2022-12-08T14:56:26.793Z,1.21
2022-12-08T15:01:28.865Z,1.86
2022-12-08T15:06:30.658Z,3.06
2022-12-08T15:11:35.116Z,2.76
2022-12-08T15:16:36.724Z,2.74
2022-12-08T15:21:38.977Z,2.77
2022-12-08T15:26:49.079Z,2.19
2022-12-08T15:31:52.812Z,3.28
2022-12-08T15:36:55.079Z,3.24
2022-12-08T15:41:57.312Z,2.23
2022-12-08T15:47:00.035Z,2.25
2022-12-08T15:52:11.321Z,1.56
2022-12-08T15:57:59.092Z,2.57
2022-12-08T16:03:18.395Z,2.03
2022-12-08T16:08:38.297Z,3.07
2022-12-08T16:14:16.663Z,3.45
2022-12-08T16:19:17.106Z,2.94
2022-12-08T16:24:18.954Z,3.55
2022-12-08T16:29:22.612Z,4.08
2022-12-08T16:34:24.212Z,3.60
2022-12-08T16:39:26.085Z,3.98
2022-12-08T16:44:27.707Z,3.02
2022-12-08T16:49:29.363Z,3.38
2022-12-08T16:54:31.035Z,2.64
2022-12-08T16:59:32.657Z,1.81
2022-12-08T17:04:34.325Z,1.13
2022-12-08T17:09:36.030Z,1.72
2022-12-08T17:14:37.783Z,3.06
2022-12-08T17:19:39.537Z,3.56
2022-12-08T17:24:41.157Z,1.88
2022-12-08T17:29:42.720Z,1.64
2022-12-08T17:34:44.637Z,3.16
2022-12-08T17:39:46.395Z,3.03
2022-12-08T17:44:47.954Z,4.01
2022-12-08T17:49:49.647Z,2.60
2022-12-08T17:54:51.241Z,4.07
2022-12-08T17:59:52.927Z,3.97
2022-12-08T18:04:54.564Z,4.22
2022-12-08T18:09:56.560Z,4.09
2022-12-08T18:14:58.237Z,4.47
2022-12-08T18:19:59.844Z,4.24
2022-12-08T18:25:01.426Z,3.28
2022-12-08T18:30:04.675Z,4.36
2022-12-08T18:35:06.990Z,2.56
2022-12-08T18:40:09.643Z,3.88
2022-12-08T18:45:11.488Z,4.44
2022-12-08T18:50:13.259Z,2.93
2022-12-08T18:55:15.680Z,3.03
2022-12-08T19:00:19.386Z,3.34
2022-12-08T19:05:20.982Z,3.20
2022-12-08T19:10:22.582Z,3.23
2022-12-08T19:15:24.489Z,3.22
2022-12-08T19:20:27.426Z,3.03
2022-12-08T19:25:29.051Z,3.81
2022-12-08T19:30:33.415Z,3.07
2022-12-08T19:35:36.270Z,3.73
2022-12-08T19:40:58.956Z,4.40
2022-12-08T19:46:00.777Z,2.50
2022-12-08T19:51:02.525Z,2.31
2022-12-08T19:56:04.824Z,3.10
2022-12-08T20:01:06.615Z,3.69
2022-12-08T20:06:15.601Z,2.43
2022-12-08T20:11:17.319Z,3.47
2022-12-08T20:16:19.346Z,3.98
2022-12-08T20:21:22.091Z,3.76
2022-12-08T20:26:24.508Z,2.77
2022-12-08T20:31:29.616Z,4.04
2022-12-08T20:36:31.627Z,3.34
2022-12-08T20:41:38.791Z,3.60
2022-12-08T20:46:44.985Z,3.87
2022-12-08T20:51:49.927Z,3.90
2022-12-08T20:56:52.061Z,3.39
2022-12-08T21:01:54.149Z,3.60
2022-12-08T21:06:56.044Z,3.90
2022-12-08T21:11:57.831Z,3.45
2022-12-08T21:16:59.607Z,3.98
2022-12-08T21:22:01.528Z,3.30
2022-12-08T21:27:03.394Z,3.24
2022-12-08T21:32:05.596Z,2.38
2022-12-08T21:37:07.431Z,2.09
2022-12-08T21:42:33.887Z,2.00
2022-12-08T21:47:36.191Z,0.98
2022-12-08T21:52:39.820Z,1.46
2022-12-08T21:57:41.744Z,0.59
2022-12-08T22:02:43.795Z,0.73
2022-12-08T22:07:45.737Z,1.05
2022-12-08T22:12:47.620Z,1.43
2022-12-08T22:17:49.482Z,1.10
2022-12-08T22:22:51.165Z,2.37
2022-12-08T22:27:52.837Z,1.19
2022-12-08T22:32:54.778Z,0.87
2022-12-08T22:37:56.502Z,2.01
2022-12-08T22:42:58.306Z,2.22
2022-12-08T22:47:59.974Z,2.19
2022-12-08T22:53:02.037Z,1.72
2022-12-08T22:58:03.737Z,2.60
2022-12-08T23:03:06.371Z,1.74
2022-12-08T23:08:09.376Z,1.86
2022-12-08T23:13:12.434Z,2.79
2022-12-08T23:18:16.771Z,1.38
2022-12-08T23:23:18.382Z,1.18
2022-12-08T23:28:20.211Z,0.83
2022-12-08T23:33:22.002Z,0.75
2022-12-08T23:38:24.126Z,1.22
2022-12-08T23:43:25.782Z,2.04
2022-12-08T23:48:29.222Z,1.51
2022-12-08T23:53:32.431Z,1.99
2022-12-08T23:58:35.554Z,1.87
